ココス (キーリング) 諸島 の空港の天気 - METARとTAF

ココス島国際空港 ( YPCC / CCK ) - ココス諸島 ココス (キーリング) 諸島
飛行場実況気象(Metar)
観測時間12/01 02:00 CCT (11/30 19:30 UTC)
風向・風速東南東 5m/s
視程10km以上
天気現象
全天の4割程度の雲 雲底高度 760m
気温26℃
湿度79%
気圧1010hPa
METARYPCC 301930Z AUTO 12010KT 9999 // SCT025 26/22 Q1010 RF00.0/000.0
過去の天気等 Google飛行場航空写真 Wunderground天気予報

過去48時間のMETAR

飛行場予報(TAF)
発表時間: 11/30 23:31 CCT (11/30 17:01 UTC)
予報対象時間: 1日0時 CCT ~ 2日0時 CCT
風向・風速東南東 8m/s
視程10km以上
全天の4割程度の雲 雲底高度 610m
TAF YPCC 301701Z 3018/0118 11015KT 9999 SCT020